Cuttyhunk, Massachusetts
Current Conditions -  °F | °C
As of 11:07 AM on Wednesday 22 Oct 2014 (Local Time) from KMVY Reporting Station
Haze Haze  
Wind Chill: 58°   Ceiling: 500
Heat Index: 58°   Visibility: 6mi
Dew Point: 57°   Wind: 17mph
Humidity: 97%   Direction: 30°NNE
Pressure: 29.88"   Gusts: 25mph
Location:  41.42°N, 70.93°W
Report Text: KMVY 221507Z 03015G22KT 6SM BR OVC005 14/14 A2988 RMK AO2 T01440139
Loading
Personal Weather Stations






























Interactive Weather Map
Tropical Storm Tracking
New forecast layout! Learn more

10-Day Weather Forecast

Advertisements
Track Severe Weather on mobile